createdAt,value
2016-10-27T00:00:27.650Z,1019.28
2016-10-27T00:01:27.621Z,1019.29
2016-10-27T00:02:27.593Z,1019.35
2016-10-27T00:03:27.566Z,1019.3
2016-10-27T00:04:27.539Z,1019.28
2016-10-27T00:05:27.511Z,1019.3
2016-10-27T00:06:27.484Z,1019.32
2016-10-27T00:07:27.457Z,1019.32
2016-10-27T00:08:27.429Z,1019.31
2016-10-27T00:09:27.401Z,1019.35
2016-10-27T00:10:27.374Z,1019.36
2016-10-27T00:11:27.347Z,1019.34
2016-10-27T00:12:27.319Z,1019.34
2016-10-27T00:13:27.292Z,1019.36
2016-10-27T00:14:27.264Z,1019.38
2016-10-27T00:15:27.238Z,1019.39
2016-10-27T00:16:27.210Z,1019.39
2016-10-27T00:17:27.183Z,1019.42
2016-10-27T00:18:27.155Z,1019.38
2016-10-27T00:19:27.127Z,1019.46
2016-10-27T00:20:27.101Z,1019.47
2016-10-27T00:21:27.073Z,1019.47
2016-10-27T00:22:27.046Z,1019.47
2016-10-27T00:23:27.018Z,1019.5
2016-10-27T00:24:26.991Z,1019.46
2016-10-27T00:25:26.964Z,1019.46
2016-10-27T00:26:26.937Z,1019.52
2016-10-27T00:27:26.910Z,1019.54
2016-10-27T00:28:26.882Z,1019.59
2016-10-27T00:29:26.855Z,1019.63
2016-10-27T00:30:26.826Z,1019.66
2016-10-27T00:31:26.799Z,1019.7
2016-10-27T00:32:26.772Z,1019.73
2016-10-27T00:33:26.746Z,1019.71
2016-10-27T00:34:26.716Z,1019.7
2016-10-27T00:35:26.690Z,1019.72
2016-10-27T00:36:26.662Z,1019.72
2016-10-27T00:37:26.634Z,1019.69
2016-10-27T00:38:26.607Z,1019.75
2016-10-27T00:39:26.579Z,1019.76
2016-10-27T00:40:26.552Z,1019.73
2016-10-27T00:41:26.524Z,1019.74
2016-10-27T00:42:26.497Z,1019.78
2016-10-27T00:43:26.469Z,1019.82
2016-10-27T00:44:26.443Z,1019.77
2016-10-27T00:45:26.414Z,1019.77
2016-10-27T00:46:26.387Z,1019.8
2016-10-27T00:47:26.359Z,1019.81
2016-10-27T00:48:26.331Z,1019.8
2016-10-27T00:49:26.305Z,1019.79
2016-10-27T00:50:26.276Z,1019.78
2016-10-27T00:51:26.249Z,1019.82
2016-10-27T00:52:26.222Z,1019.75
2016-10-27T00:53:26.195Z,1019.77
2016-10-27T00:54:26.166Z,1019.74
2016-10-27T00:55:26.139Z,1019.7
2016-10-27T00:56:26.111Z,1019.69
2016-10-27T00:57:26.083Z,1019.73
2016-10-27T00:58:26.056Z,1019.77
2016-10-27T00:59:26.028Z,1019.74
2016-10-27T01:00:26.001Z,1019.76
2016-10-27T01:01:25.974Z,1019.85
2016-10-27T01:02:25.948Z,1019.85
2016-10-27T01:03:25.920Z,1019.84
2016-10-27T01:04:25.894Z,1019.87
2016-10-27T01:05:25.866Z,1019.84
2016-10-27T01:06:25.838Z,1019.83
2016-10-27T01:07:25.810Z,1019.79
2016-10-27T01:08:25.782Z,1019.8
2016-10-27T01:09:25.755Z,1019.8
2016-10-27T01:10:25.728Z,1019.82
2016-10-27T01:11:25.701Z,1019.8
2016-10-27T01:12:25.672Z,1019.77
2016-10-27T01:13:25.645Z,1019.84
2016-10-27T01:14:25.618Z,1019.74
2016-10-27T01:15:25.590Z,1019.75
2016-10-27T01:16:25.562Z,1019.78
2016-10-27T01:17:25.537Z,1019.73
2016-10-27T01:18:25.508Z,1019.71
2016-10-27T01:19:25.480Z,1019.71
2016-10-27T01:20:25.453Z,1019.63
2016-10-27T01:21:25.431Z,1019.68
2016-10-27T01:22:25.397Z,1019.69
2016-10-27T01:23:25.370Z,1019.7
2016-10-27T01:24:25.344Z,1019.69
2016-10-27T01:25:25.315Z,1019.7
2016-10-27T01:26:25.289Z,1019.67
2016-10-27T01:27:25.261Z,1019.72
2016-10-27T01:28:25.233Z,1019.62
2016-10-27T01:29:25.205Z,1019.57
2016-10-27T01:30:25.178Z,1019.59
2016-10-27T01:31:25.151Z,1019.59
2016-10-27T01:32:25.123Z,1019.54
2016-10-27T01:33:25.096Z,1019.58
2016-10-27T01:34:25.069Z,1019.6
2016-10-27T01:35:25.042Z,1019.62
2016-10-27T01:36:25.016Z,1019.63
2016-10-27T01:37:24.988Z,1019.68
2016-10-27T01:38:24.961Z,1019.68
2016-10-27T01:39:24.933Z,1019.64
2016-10-27T01:40:24.905Z,1019.67
2016-10-27T01:41:24.878Z,1019.65
2016-10-27T01:42:24.852Z,1019.67
2016-10-27T01:43:24.824Z,1019.68
2016-10-27T01:44:24.797Z,1019.68
2016-10-27T01:45:24.770Z,1019.71
2016-10-27T01:46:24.743Z,1019.67
2016-10-27T01:47:24.715Z,1019.67
2016-10-27T01:48:24.689Z,1019.7
2016-10-27T01:49:24.661Z,1019.69
2016-10-27T01:50:24.635Z,1019.66
2016-10-27T01:51:24.607Z,1019.62
2016-10-27T01:52:24.581Z,1019.59
2016-10-27T01:53:24.554Z,1019.59
2016-10-27T01:54:24.526Z,1019.64
2016-10-27T01:55:24.501Z,1019.63
2016-10-27T01:56:24.473Z,1019.65
2016-10-27T01:57:24.447Z,1019.64
2016-10-27T01:58:24.419Z,1019.66
2016-10-27T01:59:24.393Z,1019.65
2016-10-27T02:00:24.367Z,1019.65
2016-10-27T02:01:24.340Z,1019.66
2016-10-27T02:02:24.362Z,1019.66
2016-10-27T02:03:24.287Z,1019.68
2016-10-27T02:04:24.261Z,1019.66
2016-10-27T02:05:24.233Z,1019.67
2016-10-27T02:06:24.206Z,1019.62
2016-10-27T02:07:24.180Z,1019.66
2016-10-27T02:08:24.152Z,1019.63
2016-10-27T02:09:24.126Z,1019.58
2016-10-27T02:10:24.099Z,1019.53
2016-10-27T02:11:24.072Z,1019.5
2016-10-27T02:12:24.044Z,1019.48
2016-10-27T02:13:24.017Z,1019.52
2016-10-27T02:14:23.994Z,1019.54
2016-10-27T02:15:23.966Z,1019.53
2016-10-27T02:16:23.937Z,1019.48
2016-10-27T02:17:23.910Z,1019.55
2016-10-27T02:18:23.884Z,1019.54
2016-10-27T02:19:23.859Z,1019.54
2016-10-27T02:20:23.831Z,1019.55
2016-10-27T02:21:23.806Z,1019.6
2016-10-27T02:22:23.778Z,1019.61
2016-10-27T02:23:23.750Z,1019.63
2016-10-27T02:24:23.723Z,1019.65
2016-10-27T02:25:23.697Z,1019.63
2016-10-27T02:26:23.671Z,1019.61
2016-10-27T02:27:23.643Z,1019.64
2016-10-27T02:28:23.615Z,1019.64
2016-10-27T02:29:23.589Z,1019.6
2016-10-27T02:30:23.562Z,1019.68
2016-10-27T02:31:23.536Z,1019.71
2016-10-27T02:32:23.508Z,1019.69
2016-10-27T02:33:23.481Z,1019.7
2016-10-27T02:34:23.455Z,1019.69
2016-10-27T02:35:23.428Z,1019.72
2016-10-27T02:36:23.402Z,1019.71
2016-10-27T02:37:23.375Z,1019.76
2016-10-27T02:38:23.346Z,1019.75
2016-10-27T02:39:23.321Z,1019.73
2016-10-27T02:40:23.298Z,1019.72
2016-10-27T02:41:23.268Z,1019.66
2016-10-27T02:42:23.238Z,1019.68
2016-10-27T02:43:23.213Z,1019.65
2016-10-27T02:44:23.186Z,1019.69
2016-10-27T02:45:23.158Z,1019.64
2016-10-27T02:46:23.132Z,1019.63
2016-10-27T02:47:23.106Z,1019.66
2016-10-27T02:48:23.079Z,1019.67
2016-10-27T02:49:23.051Z,1019.64
2016-10-27T02:50:23.025Z,1019.69
2016-10-27T02:51:22.998Z,1019.63
2016-10-27T02:52:22.972Z,1019.65
2016-10-27T02:53:22.944Z,1019.61
2016-10-27T02:54:22.917Z,1019.67
2016-10-27T02:55:22.890Z,1019.69
2016-10-27T02:56:22.878Z,1019.68
2016-10-27T02:57:22.836Z,1019.66
2016-10-27T02:58:22.810Z,1019.66
2016-10-27T02:59:22.783Z,1019.64
2016-10-27T03:00:22.754Z,1019.63
2016-10-27T03:01:22.728Z,1019.64
2016-10-27T03:02:22.701Z,1019.66
2016-10-27T03:03:22.675Z,1019.72
2016-10-27T03:04:22.646Z,1019.71
2016-10-27T03:05:22.621Z,1019.74
2016-10-27T03:06:22.594Z,1019.7
2016-10-27T03:07:22.566Z,1019.78
2016-10-27T03:08:22.539Z,1019.74
2016-10-27T03:09:22.513Z,1019.76
2016-10-27T03:10:22.485Z,1019.77
2016-10-27T03:11:22.457Z,1019.76
2016-10-27T03:12:22.430Z,1019.8
2016-10-27T03:13:22.404Z,1019.8
2016-10-27T03:14:22.378Z,1019.83
2016-10-27T03:15:22.349Z,1019.81
2016-10-27T03:16:22.323Z,1019.79
2016-10-27T03:17:22.297Z,1019.84
2016-10-27T03:18:22.269Z,1019.83
2016-10-27T03:19:22.243Z,1019.87
2016-10-27T03:20:22.216Z,1019.86
2016-10-27T03:21:22.188Z,1019.87
2016-10-27T03:22:22.162Z,1019.87
2016-10-27T03:23:22.135Z,1019.85
2016-10-27T03:24:22.108Z,1019.84
2016-10-27T03:25:22.082Z,1019.89
2016-10-27T03:26:22.054Z,1019.88
2016-10-27T03:27:22.028Z,1019.87
2016-10-27T03:28:22.001Z,1019.89
2016-10-27T03:29:21.974Z,1019.88
2016-10-27T03:30:21.947Z,1019.9
2016-10-27T03:31:21.921Z,1019.92
2016-10-27T03:32:21.895Z,1019.89
2016-10-27T03:33:21.867Z,1019.88
2016-10-27T03:34:21.839Z,1019.91
2016-10-27T03:35:21.812Z,1019.89
2016-10-27T03:36:21.787Z,1019.94
2016-10-27T03:37:21.760Z,1019.94
2016-10-27T03:38:21.734Z,1019.94
2016-10-27T03:39:21.707Z,1019.92
2016-10-27T03:40:21.680Z,1019.89
2016-10-27T03:41:21.653Z,1019.92
2016-10-27T03:42:21.627Z,1019.9
2016-10-27T03:43:21.599Z,1019.91
2016-10-27T03:44:21.573Z,1019.89
2016-10-27T03:45:21.546Z,1019.9
2016-10-27T03:46:21.520Z,1019.91
2016-10-27T03:47:21.492Z,1019.85
2016-10-27T03:48:21.466Z,1019.86
2016-10-27T03:49:21.440Z,1019.91
2016-10-27T03:50:21.413Z,1019.89
2016-10-27T03:51:21.386Z,1019.98
2016-10-27T03:52:21.360Z,1019.95
2016-10-27T03:53:21.332Z,1019.97
2016-10-27T03:54:21.307Z,1019.97
2016-10-27T03:55:21.280Z,1019.97
2016-10-27T03:56:21.253Z,1019.9
2016-10-27T03:57:21.227Z,1019.92
2016-10-27T03:58:21.199Z,1019.94
2016-10-27T03:59:21.173Z,1019.92
2016-10-27T04:00:21.145Z,1019.92
2016-10-27T04:01:21.121Z,1019.95
2016-10-27T04:02:21.093Z,1019.96
2016-10-27T04:03:21.066Z,1019.94
2016-10-27T04:04:21.040Z,1019.96
2016-10-27T04:05:21.013Z,1019.91
2016-10-27T04:06:20.985Z,1019.93
2016-10-27T04:07:20.959Z,1019.91
2016-10-27T04:08:20.933Z,1019.9
2016-10-27T04:09:20.906Z,1019.88
2016-10-27T04:10:20.880Z,1019.93
2016-10-27T04:11:20.853Z,1019.9
2016-10-27T04:12:20.827Z,1019.85
2016-10-27T04:13:20.799Z,1019.96
2016-10-27T04:14:20.772Z,1019.84
2016-10-27T04:15:20.747Z,1019.86
2016-10-27T04:16:20.720Z,1019.88
2016-10-27T04:17:20.693Z,1019.93
2016-10-27T04:18:20.667Z,1019.89
2016-10-27T04:19:20.639Z,1019.83
2016-10-27T04:20:20.613Z,1019.81
2016-10-27T04:21:20.586Z,1019.79
2016-10-27T04:22:20.560Z,1019.82
2016-10-27T04:23:20.533Z,1019.81
2016-10-27T04:24:20.507Z,1019.84
2016-10-27T04:25:20.479Z,1019.87
2016-10-27T04:26:20.453Z,1019.87
2016-10-27T04:27:20.427Z,1019.85
2016-10-27T04:28:20.401Z,1019.89
2016-10-27T04:29:20.374Z,1019.84
2016-10-27T04:30:20.347Z,1019.86
2016-10-27T04:31:20.320Z,1019.84
2016-10-27T04:32:20.294Z,1019.84
2016-10-27T04:33:20.268Z,1019.85
2016-10-27T04:34:20.242Z,1019.9
2016-10-27T04:35:20.214Z,1019.88
2016-10-27T04:36:20.188Z,1019.9
2016-10-27T04:37:20.162Z,1019.95
2016-10-27T04:38:20.135Z,1019.97
2016-10-27T04:39:20.108Z,1019.95
2016-10-27T04:40:20.083Z,1019.99
2016-10-27T04:41:20.057Z,1019.98
2016-10-27T04:42:20.029Z,1019.95
2016-10-27T04:43:20.003Z,1020.01
2016-10-27T04:44:19.977Z,1019.98
2016-10-27T04:45:19.951Z,1020
2016-10-27T04:46:19.924Z,1019.98
2016-10-27T04:47:19.898Z,1020.02
2016-10-27T04:48:19.872Z,1020.02
2016-10-27T04:49:19.846Z,1020.01
2016-10-27T04:50:19.818Z,1020.01
2016-10-27T04:51:19.794Z,1019.97
2016-10-27T04:52:19.767Z,1019.97
2016-10-27T04:53:19.739Z,1020
2016-10-27T04:54:19.713Z,1020
2016-10-27T04:55:19.687Z,1020.01
2016-10-27T04:56:19.661Z,1020.03
2016-10-27T04:57:19.635Z,1020.01
2016-10-27T04:58:19.609Z,1020.02
2016-10-27T04:59:19.583Z,1020.08
2016-10-27T05:00:19.556Z,1020.04
2016-10-27T05:01:19.530Z,1020.08
2016-10-27T05:02:19.503Z,1020.06
2016-10-27T05:03:19.477Z,1020.16
2016-10-27T05:04:19.451Z,1020.17
2016-10-27T05:05:19.424Z,1020.19
2016-10-27T05:06:19.398Z,1020.16
2016-10-27T05:07:19.373Z,1020.17
2016-10-27T05:08:19.346Z,1020.15
2016-10-27T05:09:19.319Z,1020.21
2016-10-27T05:10:19.293Z,1020.15
2016-10-27T05:11:19.267Z,1020.16
2016-10-27T05:12:19.241Z,1020.2
2016-10-27T05:13:19.215Z,1020.19
2016-10-27T05:14:19.190Z,1020.16
2016-10-27T05:15:19.241Z,1020.16
2016-10-27T05:16:19.832Z,1020.15
2016-10-27T05:17:19.112Z,1020.17
2016-10-27T05:18:19.084Z,1020.11
2016-10-27T05:19:19.056Z,1020.15
2016-10-27T05:20:19.033Z,1020.17
2016-10-27T05:21:19.005Z,1020.18
2016-10-27T05:22:18.978Z,1020.17
2016-10-27T05:23:18.952Z,1020.19
2016-10-27T05:24:18.925Z,1020.17
2016-10-27T05:25:18.899Z,1020.2
2016-10-27T05:26:18.873Z,1020.15
2016-10-27T05:27:18.847Z,1020.14
2016-10-27T05:28:18.820Z,1020.16
2016-10-27T05:29:18.794Z,1020.19
2016-10-27T05:30:18.768Z,1020.2
2016-10-27T05:31:18.742Z,1020.22
2016-10-27T05:32:18.717Z,1020.19
2016-10-27T05:33:18.689Z,1020.23
2016-10-27T05:34:18.661Z,1020.21
2016-10-27T05:35:18.637Z,1020.24
2016-10-27T05:36:18.610Z,1020.21
2016-10-27T05:37:18.584Z,1020.18
2016-10-27T05:38:18.556Z,1020.21
2016-10-27T05:39:18.531Z,1020.19
2016-10-27T05:40:18.505Z,1020.21
2016-10-27T05:41:18.477Z,1020.25
2016-10-27T05:42:18.453Z,1020.3
2016-10-27T05:43:18.425Z,1020.28
2016-10-27T05:44:18.398Z,1020.28
2016-10-27T05:45:18.373Z,1020.31
2016-10-27T05:46:18.347Z,1020.33
2016-10-27T05:47:18.321Z,1020.35
2016-10-27T05:48:18.293Z,1020.38
2016-10-27T05:49:18.268Z,1020.43
2016-10-27T05:50:18.241Z,1020.45
2016-10-27T05:51:18.217Z,1020.5
2016-10-27T05:52:18.189Z,1020.49
2016-10-27T05:53:18.162Z,1020.44
2016-10-27T05:54:18.137Z,1020.46
2016-10-27T05:55:18.111Z,1020.48
2016-10-27T05:56:18.085Z,1020.47
2016-10-27T05:57:18.058Z,1020.49
2016-10-27T05:58:18.032Z,1020.46
2016-10-27T05:59:18.006Z,1020.49
2016-10-27T06:00:17.979Z,1020.49
2016-10-27T06:01:17.954Z,1020.53
2016-10-27T06:02:17.927Z,1020.53
2016-10-27T06:03:17.901Z,1020.53
2016-10-27T06:04:17.875Z,1020.52
2016-10-27T06:05:17.849Z,1020.53
2016-10-27T06:06:17.822Z,1020.52
2016-10-27T06:07:17.796Z,1020.55
2016-10-27T06:08:17.772Z,1020.56
2016-10-27T06:09:17.746Z,1020.59
2016-10-27T06:10:17.719Z,1020.6
2016-10-27T06:11:17.693Z,1020.6
2016-10-27T06:12:17.667Z,1020.58
2016-10-27T06:13:17.642Z,1020.61
2016-10-27T06:14:17.615Z,1020.58
2016-10-27T06:15:17.588Z,1020.63
2016-10-27T06:16:17.562Z,1020.6
2016-10-27T06:17:17.537Z,1020.63
2016-10-27T06:18:17.511Z,1020.65
2016-10-27T06:19:17.484Z,1020.63
2016-10-27T06:20:17.460Z,1020.6
2016-10-27T06:21:17.432Z,1020.61
2016-10-27T06:22:17.406Z,1020.6
2016-10-27T06:23:17.380Z,1020.63
2016-10-27T06:24:17.355Z,1020.63
2016-10-27T06:25:17.329Z,1020.62
2016-10-27T06:26:17.303Z,1020.65
2016-10-27T06:27:17.278Z,1020.66
2016-10-27T06:28:17.250Z,1020.67
2016-10-27T06:29:17.225Z,1020.65
2016-10-27T06:30:17.198Z,1020.68
2016-10-27T06:31:17.173Z,1020.71
2016-10-27T06:32:17.146Z,1020.74
2016-10-27T06:33:17.121Z,1020.71
2016-10-27T06:34:17.095Z,1020.71
2016-10-27T06:35:17.070Z,1020.74
2016-10-27T06:36:17.043Z,1020.79
2016-10-27T06:37:17.016Z,1020.82
2016-10-27T06:38:16.992Z,1020.82
2016-10-27T06:39:16.964Z,1020.81
2016-10-27T06:40:16.938Z,1020.82
2016-10-27T06:41:16.912Z,1020.77
2016-10-27T06:42:16.887Z,1020.74
2016-10-27T06:43:16.861Z,1020.77
2016-10-27T06:44:16.836Z,1020.77
2016-10-27T06:45:16.809Z,1020.75
2016-10-27T06:46:16.783Z,1020.79
2016-10-27T06:47:16.757Z,1020.79
2016-10-27T06:48:16.731Z,1020.81
2016-10-27T06:49:16.707Z,1020.79
2016-10-27T06:50:16.679Z,1020.83
2016-10-27T06:51:16.654Z,1020.78
2016-10-27T06:52:16.627Z,1020.8
2016-10-27T06:53:16.602Z,1020.82
2016-10-27T06:54:16.578Z,1020.81
2016-10-27T06:55:16.549Z,1020.82
2016-10-27T06:56:16.525Z,1020.84
2016-10-27T06:57:16.497Z,1020.84
2016-10-27T06:58:16.471Z,1020.85
2016-10-27T06:59:16.447Z,1020.9
2016-10-27T07:00:16.421Z,1020.88
2016-10-27T07:01:16.393Z,1020.89
2016-10-27T07:02:16.369Z,1020.92
2016-10-27T07:03:16.342Z,1020.92
2016-10-27T07:04:16.317Z,1020.89
2016-10-27T07:05:16.290Z,1020.92
2016-10-27T07:06:16.269Z,1020.92
2016-10-27T07:07:16.239Z,1020.93
2016-10-27T07:08:16.214Z,1020.93
2016-10-27T07:09:16.187Z,1020.95
2016-10-27T07:10:16.162Z,1020.95
2016-10-27T07:11:16.138Z,1020.98
2016-10-27T07:12:16.110Z,1020.99
2016-10-27T07:13:16.086Z,1020.95
2016-10-27T07:14:16.059Z,1020.98
2016-10-27T07:15:16.035Z,1020.99
2016-10-27T07:16:16.009Z,1020.96
2016-10-27T07:17:15.982Z,1020.94
2016-10-27T07:18:15.957Z,1020.97
2016-10-27T07:19:15.931Z,1020.98
2016-10-27T07:20:15.907Z,1021.01
2016-10-27T07:21:15.881Z,1021
2016-10-27T07:22:15.855Z,1021.03
2016-10-27T07:23:15.832Z,1021.05
2016-10-27T07:24:15.805Z,1021.04
2016-10-27T07:25:15.780Z,1021.07
2016-10-27T07:26:15.754Z,1021.06
2016-10-27T07:27:15.729Z,1021.07
2016-10-27T07:28:15.703Z,1021.07
2016-10-27T07:29:15.679Z,1021.08
2016-10-27T07:30:15.653Z,1021.08
2016-10-27T07:31:15.626Z,1021.09
2016-10-27T07:32:15.601Z,1021.1
2016-10-27T07:33:15.577Z,1021.12
2016-10-27T07:34:15.551Z,1021.09
2016-10-27T07:35:15.527Z,1021.09
2016-10-27T07:36:15.501Z,1021.1
2016-10-27T07:37:15.476Z,1021.1
2016-10-27T07:38:15.453Z,1021.15
2016-10-27T07:39:15.426Z,1021.13
2016-10-27T07:40:15.402Z,1021.09
2016-10-27T07:41:15.376Z,1021.11
2016-10-27T07:42:15.352Z,1021.13
2016-10-27T07:43:15.326Z,1021.11
2016-10-27T07:44:15.302Z,1021.15
2016-10-27T07:45:15.277Z,1021.13
2016-10-27T07:46:15.252Z,1021.18
2016-10-27T07:47:15.227Z,1021.16
2016-10-27T07:48:15.202Z,1021.17
2016-10-27T07:49:15.177Z,1021.2
2016-10-27T07:50:15.152Z,1021.2
2016-10-27T07:51:15.129Z,1021.22
2016-10-27T07:52:15.103Z,1021.24
2016-10-27T07:53:15.078Z,1021.28
2016-10-27T07:54:15.055Z,1021.27
2016-10-27T07:55:15.029Z,1021.25
2016-10-27T07:56:15.006Z,1021.24
2016-10-27T07:57:14.982Z,1021.28
2016-10-27T07:58:14.957Z,1021.28
2016-10-27T07:59:15.091Z,1021.3
2016-10-27T08:00:14.907Z,1021.22
2016-10-27T08:01:14.884Z,1021.25
2016-10-27T08:02:14.860Z,1021.27
2016-10-27T08:03:14.834Z,1021.24
2016-10-27T08:04:14.810Z,1021.24
2016-10-27T08:05:14.786Z,1021.25
2016-10-27T08:06:14.765Z,1021.27
2016-10-27T08:07:14.739Z,1021.33
2016-10-27T08:08:14.715Z,1021.29
2016-10-27T08:09:14.756Z,1021.28
2016-10-27T08:10:14.666Z,1021.34
2016-10-27T08:11:14.644Z,1021.32
2016-10-27T08:12:14.618Z,1021.35
2016-10-27T08:13:14.594Z,1021.34
2016-10-27T08:14:14.570Z,1021.37
2016-10-27T08:15:14.546Z,1021.36
2016-10-27T08:16:14.523Z,1021.34
2016-10-27T08:17:14.498Z,1021.35
2016-10-27T08:18:14.473Z,1021.36
2016-10-27T08:19:14.451Z,1021.41
2016-10-27T08:20:14.426Z,1021.4
2016-10-27T08:21:14.403Z,1021.42
2016-10-27T08:22:14.380Z,1021.38
2016-10-27T08:23:14.355Z,1021.42
2016-10-27T08:24:14.333Z,1021.4
2016-10-27T08:25:14.308Z,1021.4
2016-10-27T08:26:14.284Z,1021.47
2016-10-27T08:27:14.362Z,1021.45
2016-10-27T08:28:14.238Z,1021.44
2016-10-27T08:29:14.213Z,1021.47
2016-10-27T08:30:14.191Z,1021.44
2016-10-27T08:31:14.167Z,1021.48
2016-10-27T08:32:14.143Z,1021.43
2016-10-27T08:33:14.120Z,1021.44
2016-10-27T08:34:14.096Z,1021.44
2016-10-27T08:35:14.073Z,1021.5
2016-10-27T08:36:14.049Z,1021.51
2016-10-27T08:37:14.027Z,1021.49
2016-10-27T08:38:14.005Z,1021.47
2016-10-27T08:39:13.981Z,1021.48
2016-10-27T08:40:13.959Z,1021.53
2016-10-27T08:41:13.936Z,1021.51
2016-10-27T08:42:13.913Z,1021.49
2016-10-27T08:43:13.889Z,1021.48
2016-10-27T08:44:13.867Z,1021.5
2016-10-27T08:45:13.843Z,1021.48
2016-10-27T08:46:13.822Z,1021.46
2016-10-27T08:47:13.798Z,1021.49
2016-10-27T08:48:13.776Z,1021.47
2016-10-27T08:49:13.754Z,1021.49
2016-10-27T08:50:13.731Z,1021.51
2016-10-27T08:51:13.707Z,1021.53
2016-10-27T08:52:13.685Z,1021.55
2016-10-27T08:53:13.663Z,1021.5
2016-10-27T08:54:13.639Z,1021.53
2016-10-27T08:55:13.616Z,1021.55
2016-10-27T08:56:13.594Z,1021.53
2016-10-27T08:57:13.571Z,1021.6
2016-10-27T08:58:13.549Z,1021.55
2016-10-27T08:59:13.527Z,1021.6
2016-10-27T09:00:13.505Z,1021.59
2016-10-27T09:01:13.482Z,1021.63
2016-10-27T09:02:13.459Z,1021.62
2016-10-27T09:03:13.435Z,1021.6
2016-10-27T09:04:13.414Z,1021.6
2016-10-27T09:05:13.390Z,1021.57
2016-10-27T09:06:13.367Z,1021.59
2016-10-27T09:07:13.347Z,1021.56
2016-10-27T09:08:13.324Z,1021.59
2016-10-27T09:09:13.301Z,1021.57
2016-10-27T09:10:13.279Z,1021.63
2016-10-27T09:11:13.257Z,1021.59
2016-10-27T09:12:13.235Z,1021.61
2016-10-27T09:13:13.211Z,1021.54
2016-10-27T09:14:13.293Z,1021.5
2016-10-27T09:15:13.169Z,1021.55
2016-10-27T09:16:13.148Z,1021.56
2016-10-27T09:17:13.123Z,1021.55
2016-10-27T09:18:13.100Z,1021.53
2016-10-27T09:19:13.079Z,1021.53
2016-10-27T09:20:13.056Z,1021.53
2016-10-27T09:21:13.034Z,1021.53
2016-10-27T09:22:13.012Z,1021.49
2016-10-27T09:23:12.991Z,1021.53
2016-10-27T09:24:12.969Z,1021.54
2016-10-27T09:25:12.946Z,1021.57
2016-10-27T09:26:12.925Z,1021.57
2016-10-27T09:27:12.901Z,1021.6
2016-10-27T09:28:12.880Z,1021.55
2016-10-27T09:29:12.858Z,1021.54
2016-10-27T09:30:12.836Z,1021.59
2016-10-27T09:31:12.826Z,1021.64
2016-10-27T09:32:12.791Z,1021.62
2016-10-27T09:33:12.770Z,1021.66
2016-10-27T09:34:12.748Z,1021.71
2016-10-27T09:35:12.725Z,1021.63
2016-10-27T09:36:12.705Z,1021.65
2016-10-27T09:37:12.686Z,1021.65
2016-10-27T09:38:12.657Z,1021.72
2016-10-27T09:39:12.635Z,1021.66
2016-10-27T09:40:12.614Z,1021.72
2016-10-27T09:41:12.592Z,1021.72
2016-10-27T09:42:12.570Z,1021.66
2016-10-27T09:43:12.547Z,1021.72
2016-10-27T09:44:12.527Z,1021.73
2016-10-27T09:45:12.504Z,1021.76
2016-10-27T09:46:12.481Z,1021.76
2016-10-27T09:47:12.460Z,1021.75
2016-10-27T09:48:12.437Z,1021.76
2016-10-27T09:49:12.415Z,1021.71
2016-10-27T09:50:12.393Z,1021.7
2016-10-27T09:51:12.373Z,1021.67
2016-10-27T09:52:12.350Z,1021.67
2016-10-27T09:53:12.327Z,1021.71
2016-10-27T09:54:12.305Z,1021.69
2016-10-27T09:55:12.284Z,1021.7
2016-10-27T09:56:12.263Z,1021.72
2016-10-27T09:57:12.242Z,1021.79
2016-10-27T09:58:12.219Z,1021.75
2016-10-27T09:59:12.199Z,1021.73
2016-10-27T10:00:12.177Z,1021.71
2016-10-27T10:01:12.155Z,1021.67
2016-10-27T10:02:12.232Z,1021.72
2016-10-27T10:03:12.112Z,1021.8
2016-10-27T10:04:12.089Z,1021.77
2016-10-27T10:05:12.067Z,1021.76
2016-10-27T10:06:12.045Z,1021.76
2016-10-27T10:07:12.031Z,1021.79
2016-10-27T10:08:12.003Z,1021.79
2016-10-27T10:09:11.982Z,1021.77
2016-10-27T10:10:11.961Z,1021.85
2016-10-27T10:11:11.937Z,1021.74
2016-10-27T10:12:11.916Z,1021.78
2016-10-27T10:13:11.895Z,1021.77
2016-10-27T10:14:11.874Z,1021.67
2016-10-27T10:15:11.852Z,1021.72
2016-10-27T10:16:11.830Z,1021.68
2016-10-27T10:17:11.809Z,1021.73
2016-10-27T10:18:11.786Z,1021.72
2016-10-27T10:19:11.765Z,1021.76
2016-10-27T10:20:11.744Z,1021.76
2016-10-27T10:21:11.727Z,1021.8
2016-10-27T10:22:11.794Z,1021.78
2016-10-27T10:23:11.679Z,1021.78
2016-10-27T10:24:11.660Z,1021.81
2016-10-27T10:25:11.638Z,1021.82
2016-10-27T10:26:11.938Z,1021.84
2016-10-27T10:27:11.593Z,1021.85
2016-10-27T10:28:11.572Z,1021.88
2016-10-27T10:29:11.550Z,1021.85
2016-10-27T10:30:11.529Z,1021.94
2016-10-27T10:31:11.507Z,1021.82
2016-10-27T10:32:11.487Z,1021.85
2016-10-27T10:33:11.489Z,1021.92
2016-10-27T10:34:11.472Z,1021.86
2016-10-27T10:35:11.421Z,1021.89
2016-10-27T10:36:11.399Z,1021.94
2016-10-27T10:37:11.378Z,1021.87
2016-10-27T10:38:11.357Z,1021.87
2016-10-27T10:39:11.335Z,1021.88
2016-10-27T10:40:11.313Z,1021.83
2016-10-27T10:41:11.292Z,1021.87
2016-10-27T10:42:11.269Z,1021.84
2016-10-27T10:43:11.248Z,1021.87
2016-10-27T10:44:11.225Z,1021.88
2016-10-27T10:45:11.204Z,1021.87
2016-10-27T10:46:11.182Z,1021.88
2016-10-27T10:47:11.161Z,1021.89
2016-10-27T10:48:11.138Z,1021.87
2016-10-27T10:49:11.117Z,1021.86
2016-10-27T10:50:11.096Z,1021.82
2016-10-27T10:51:11.074Z,1021.78
2016-10-27T10:52:11.053Z,1021.77
2016-10-27T10:53:11.032Z,1021.75
2016-10-27T10:54:11.011Z,1021.72
2016-10-27T10:55:10.990Z,1021.7
2016-10-27T10:56:10.971Z,1021.74
2016-10-27T10:57:10.949Z,1021.79
2016-10-27T10:58:10.929Z,1021.74
2016-10-27T10:59:10.907Z,1021.78
2016-10-27T11:00:10.887Z,1021.74
2016-10-27T11:01:10.868Z,1021.76
2016-10-27T11:02:10.846Z,1021.77
2016-10-27T11:03:10.825Z,1021.82
2016-10-27T11:04:10.805Z,1021.92
2016-10-27T11:05:10.785Z,1021.88
2016-10-27T11:06:10.764Z,1021.88
2016-10-27T11:07:10.745Z,1021.87
2016-10-27T11:08:10.723Z,1021.9
2016-10-27T11:09:10.703Z,1021.89
2016-10-27T11:10:10.683Z,1021.85
2016-10-27T11:11:10.662Z,1021.88
2016-10-27T11:12:10.641Z,1021.93
2016-10-27T11:13:10.619Z,1021.86
2016-10-27T11:14:10.600Z,1021.88
2016-10-27T11:15:10.579Z,1021.9
2016-10-27T11:16:10.558Z,1021.88
2016-10-27T11:17:10.538Z,1021.82
2016-10-27T11:18:10.517Z,1021.88
2016-10-27T11:19:10.496Z,1021.9
2016-10-27T11:20:10.476Z,1021.87
2016-10-27T11:21:10.455Z,1021.82
2016-10-27T11:22:10.433Z,1021.84
2016-10-27T11:23:10.414Z,1021.86
2016-10-27T11:24:10.391Z,1021.85
2016-10-27T11:25:10.372Z,1021.9
2016-10-27T11:26:10.351Z,1021.9
2016-10-27T11:27:10.331Z,1021.89
2016-10-27T11:28:10.310Z,1021.9
2016-10-27T11:29:10.290Z,1021.9
2016-10-27T11:30:10.271Z,1021.9
2016-10-27T11:31:10.250Z,1021.88
2016-10-27T11:32:10.230Z,1021.88
2016-10-27T11:33:10.210Z,1021.88
2016-10-27T11:34:10.191Z,1021.81
2016-10-27T11:35:10.169Z,1021.89
2016-10-27T11:36:10.149Z,1021.84
2016-10-27T11:37:10.131Z,1021.83
2016-10-27T11:38:10.111Z,1021.84
2016-10-27T11:39:10.090Z,1021.82
2016-10-27T11:40:10.072Z,1021.79
2016-10-27T11:41:10.053Z,1021.78
2016-10-27T11:42:10.031Z,1021.8
2016-10-27T11:43:10.012Z,1021.85
2016-10-27T11:44:09.991Z,1021.84
2016-10-27T11:45:09.973Z,1021.81
2016-10-27T11:46:09.953Z,1021.85
2016-10-27T11:47:09.932Z,1021.8
2016-10-27T11:48:09.912Z,1021.81
2016-10-27T11:49:09.896Z,1021.73
2016-10-27T11:50:09.873Z,1021.78
2016-10-27T11:51:09.852Z,1021.77
2016-10-27T11:52:09.832Z,1021.77
2016-10-27T11:53:09.811Z,1021.72
2016-10-27T11:54:09.792Z,1021.79
2016-10-27T11:55:09.772Z,1021.77
2016-10-27T11:56:09.754Z,1021.8
2016-10-27T11:57:09.733Z,1021.79
2016-10-27T11:58:09.713Z,1021.75
2016-10-27T11:59:09.693Z,1021.8
2016-10-27T12:00:09.674Z,1021.71
2016-10-27T12:01:09.652Z,1021.69
2016-10-27T12:02:09.633Z,1021.73
2016-10-27T12:03:09.614Z,1021.72
2016-10-27T12:04:09.592Z,1021.69
2016-10-27T12:05:09.572Z,1021.67
2016-10-27T12:06:09.552Z,1021.57
2016-10-27T12:07:09.532Z,1021.6
2016-10-27T12:08:09.512Z,1021.6